sensor_id;sensor_type;location;lat;lon;timestamp;P1;durP1;ratioP1;P2;durP2;ratioP2
41275;SDS011;27010;47.718;12.912;2023-02-12T00:01:45;4.03;;;2.10;;
41275;SDS011;27010;47.718;12.912;2023-02-12T00:04:47;3.87;;;2.17;;
41275;SDS011;27010;47.718;12.912;2023-02-12T00:07:49;5.47;;;2.20;;
41275;SDS011;27010;47.718;12.912;2023-02-12T00:10:51;5.27;;;2.60;;
41275;SDS011;27010;47.718;12.912;2023-02-12T00:13:54;3.63;;;2.33;;
41275;SDS011;27010;47.718;12.912;2023-02-12T00:16:57;3.03;;;1.97;;
41275;SDS011;27010;47.718;12.912;2023-02-12T00:19:59;4.27;;;2.60;;
41275;SDS011;27010;47.718;12.912;2023-02-12T00:23:01;3.43;;;2.20;;
41275;SDS011;27010;47.718;12.912;2023-02-12T00:26:04;4.57;;;2.60;;
41275;SDS011;27010;47.718;12.912;2023-02-12T00:29:10;5.00;;;2.80;;
41275;SDS011;27010;47.718;12.912;2023-02-12T00:32:16;4.17;;;2.57;;
41275;SDS011;27010;47.718;12.912;2023-02-12T00:35:21;3.83;;;2.27;;
41275;SDS011;27010;47.718;12.912;2023-02-12T00:38:23;3.63;;;2.50;;
41275;SDS011;27010;47.718;12.912;2023-02-12T00:41:25;4.43;;;3.10;;
41275;SDS011;27010;47.718;12.912;2023-02-12T00:44:27;4.57;;;2.53;;
41275;SDS011;27010;47.718;12.912;2023-02-12T00:47:30;5.83;;;2.27;;
41275;SDS011;27010;47.718;12.912;2023-02-12T00:50:32;4.73;;;2.43;;
41275;SDS011;27010;47.718;12.912;2023-02-12T00:53:34;4.27;;;2.43;;
41275;SDS011;27010;47.718;12.912;2023-02-12T00:56:36;7.13;;;3.33;;
41275;SDS011;27010;47.718;12.912;2023-02-12T00:59:39;4.37;;;2.70;;
41275;SDS011;27010;47.718;12.912;2023-02-12T01:02:43;5.83;;;2.70;;
41275;SDS011;27010;47.718;12.912;2023-02-12T01:05:45;4.70;;;2.70;;
41275;SDS011;27010;47.718;12.912;2023-02-12T01:08:51;5.17;;;2.60;;
41275;SDS011;27010;47.718;12.912;2023-02-12T01:11:53;5.50;;;2.57;;
41275;SDS011;27010;47.718;12.912;2023-02-12T01:14:56;4.90;;;3.07;;
41275;SDS011;27010;47.718;12.912;2023-02-12T01:17:58;4.20;;;2.20;;
41275;SDS011;27010;47.718;12.912;2023-02-12T01:21:01;3.73;;;2.50;;
41275;SDS011;27010;47.718;12.912;2023-02-12T01:24:04;3.87;;;2.33;;
41275;SDS011;27010;47.718;12.912;2023-02-12T01:27:06;7.50;;;2.90;;
41275;SDS011;27010;47.718;12.912;2023-02-12T01:30:09;4.23;;;2.80;;
41275;SDS011;27010;47.718;12.912;2023-02-12T01:33:13;4.27;;;2.73;;
41275;SDS011;27010;47.718;12.912;2023-02-12T01:36:15;5.07;;;2.87;;
41275;SDS011;27010;47.718;12.912;2023-02-12T01:39:17;3.47;;;2.20;;
41275;SDS011;27010;47.718;12.912;2023-02-12T01:42:20;4.07;;;2.60;;
41275;SDS011;27010;47.718;12.912;2023-02-12T01:45:32;5.00;;;2.53;;
41275;SDS011;27010;47.718;12.912;2023-02-12T01:48:45;3.07;;;2.00;;
41275;SDS011;27010;47.718;12.912;2023-02-12T01:51:49;3.57;;;2.37;;
41275;SDS011;27010;47.718;12.912;2023-02-12T01:54:55;3.70;;;2.50;;
41275;SDS011;27010;47.718;12.912;2023-02-12T01:58:00;3.97;;;2.97;;
41275;SDS011;27010;47.718;12.912;2023-02-12T02:01:04;5.13;;;2.60;;
41275;SDS011;27010;47.718;12.912;2023-02-12T02:04:09;4.30;;;2.70;;
41275;SDS011;27010;47.718;12.912;2023-02-12T02:07:13;6.60;;;2.90;;
41275;SDS011;27010;47.718;12.912;2023-02-12T02:10:15;6.27;;;2.80;;
41275;SDS011;27010;47.718;12.912;2023-02-12T02:13:18;4.53;;;2.93;;
41275;SDS011;27010;47.718;12.912;2023-02-12T02:16:39;4.27;;;2.67;;
41275;SDS011;27010;47.718;12.912;2023-02-12T02:43:17;4.73;;;3.00;;
41275;SDS011;27010;47.718;12.912;2023-02-12T02:46:30;5.00;;;2.90;;
41275;SDS011;27010;47.718;12.912;2023-02-12T02:49:55;5.70;;;3.00;;
41275;SDS011;27010;47.718;12.912;2023-02-12T02:53:06;5.20;;;3.37;;
41275;SDS011;27010;47.718;12.912;2023-02-12T02:56:13;5.80;;;3.27;;
41275;SDS011;27010;47.718;12.912;2023-02-12T02:59:25;4.60;;;2.57;;
41275;SDS011;27010;47.718;12.912;2023-02-12T03:02:33;4.27;;;2.57;;
41275;SDS011;27010;47.718;12.912;2023-02-12T03:05:39;4.77;;;3.20;;
41275;SDS011;27010;47.718;12.912;2023-02-12T03:09:10;3.70;;;2.87;;
41275;SDS011;27010;47.718;12.912;2023-02-12T03:12:40;4.60;;;2.93;;
41275;SDS011;27010;47.718;12.912;2023-02-12T03:15:46;4.63;;;3.17;;
41275;SDS011;27010;47.718;12.912;2023-02-12T03:22:03;5.07;;;2.90;;
41275;SDS011;27010;47.718;12.912;2023-02-12T03:25:13;4.40;;;3.07;;
41275;SDS011;27010;47.718;12.912;2023-02-12T03:28:30;4.73;;;3.53;;
41275;SDS011;27010;47.718;12.912;2023-02-12T03:31:44;7.27;;;3.70;;
41275;SDS011;27010;47.718;12.912;2023-02-12T03:34:58;5.43;;;2.10;;
41275;SDS011;27010;47.718;12.912;2023-02-12T03:41:48;5.67;;;3.43;;
41275;SDS011;27010;47.718;12.912;2023-02-12T03:44:56;5.03;;;2.80;;
41275;SDS011;27010;47.718;12.912;2023-02-12T03:51:46;5.80;;;3.87;;
41275;SDS011;27010;47.718;12.912;2023-02-12T03:54:48;7.00;;;4.30;;
41275;SDS011;27010;47.718;12.912;2023-02-12T03:57:51;7.07;;;4.40;;
41275;SDS011;27010;47.718;12.912;2023-02-12T04:00:57;4.40;;;2.63;;
41275;SDS011;27010;47.718;12.912;2023-02-12T04:04:02;6.27;;;4.30;;
41275;SDS011;27010;47.718;12.912;2023-02-12T04:07:05;5.77;;;3.50;;
41275;SDS011;27010;47.718;12.912;2023-02-12T04:10:07;6.33;;;3.77;;
41275;SDS011;27010;47.718;12.912;2023-02-12T04:13:25;7.43;;;3.80;;
41275;SDS011;27010;47.718;12.912;2023-02-12T04:23:22;8.17;;;4.77;;
41275;SDS011;27010;47.718;12.912;2023-02-12T04:29:57;8.23;;;4.57;;
41275;SDS011;27010;47.718;12.912;2023-02-12T04:33:18;8.43;;;5.00;;
41275;SDS011;27010;47.718;12.912;2023-02-12T04:36:22;9.93;;;4.57;;
41275;SDS011;27010;47.718;12.912;2023-02-12T04:39:27;8.83;;;5.20;;
41275;SDS011;27010;47.718;12.912;2023-02-12T04:42:30;6.27;;;4.13;;
41275;SDS011;27010;47.718;12.912;2023-02-12T04:45:33;7.77;;;5.03;;
41275;SDS011;27010;47.718;12.912;2023-02-12T04:48:38;6.10;;;3.87;;
41275;SDS011;27010;47.718;12.912;2023-02-12T04:51:53;6.47;;;3.57;;
41275;SDS011;27010;47.718;12.912;2023-02-12T04:54:55;5.10;;;3.80;;
41275;SDS011;27010;47.718;12.912;2023-02-12T04:57:57;9.60;;;4.30;;
41275;SDS011;27010;47.718;12.912;2023-02-12T05:00:59;6.13;;;3.20;;
41275;SDS011;27010;47.718;12.912;2023-02-12T05:04:02;6.33;;;3.77;;
41275;SDS011;27010;47.718;12.912;2023-02-12T05:07:04;6.50;;;3.60;;
41275;SDS011;27010;47.718;12.912;2023-02-12T05:10:07;5.53;;;3.37;;
41275;SDS011;27010;47.718;12.912;2023-02-12T05:13:09;5.37;;;3.93;;
41275;SDS011;27010;47.718;12.912;2023-02-12T05:16:11;8.70;;;5.67;;
41275;SDS011;27010;47.718;12.912;2023-02-12T05:19:13;9.20;;;5.67;;
41275;SDS011;27010;47.718;12.912;2023-02-12T05:22:15;10.10;;;5.20;;
41275;SDS011;27010;47.718;12.912;2023-02-12T05:25:17;8.43;;;5.13;;
41275;SDS011;27010;47.718;12.912;2023-02-12T05:28:19;8.83;;;5.17;;
41275;SDS011;27010;47.718;12.912;2023-02-12T05:31:21;7.83;;;5.07;;
41275;SDS011;27010;47.718;12.912;2023-02-12T05:34:24;8.57;;;5.40;;
41275;SDS011;27010;47.718;12.912;2023-02-12T05:37:32;6.30;;;4.00;;
41275;SDS011;27010;47.718;12.912;2023-02-12T05:40:36;8.40;;;4.47;;
41275;SDS011;27010;47.718;12.912;2023-02-12T05:43:40;5.23;;;4.40;;
41275;SDS011;27010;47.718;12.912;2023-02-12T05:46:43;4.93;;;3.13;;
41275;SDS011;27010;47.718;12.912;2023-02-12T05:49:45;4.43;;;3.20;;
41275;SDS011;27010;47.718;12.912;2023-02-12T05:52:47;5.17;;;3.50;;
41275;SDS011;27010;47.718;12.912;2023-02-12T05:55:49;7.40;;;4.50;;
41275;SDS011;27010;47.718;12.912;2023-02-12T05:59:15;5.90;;;4.37;;
41275;SDS011;27010;47.718;12.912;2023-02-12T06:02:23;6.23;;;4.13;;
41275;SDS011;27010;47.718;12.912;2023-02-12T06:05:26;5.47;;;3.57;;
41275;SDS011;27010;47.718;12.912;2023-02-12T06:08:28;7.50;;;4.07;;
41275;SDS011;27010;47.718;12.912;2023-02-12T06:11:30;8.67;;;4.00;;
41275;SDS011;27010;47.718;12.912;2023-02-12T06:14:32;5.27;;;3.67;;
41275;SDS011;27010;47.718;12.912;2023-02-12T06:17:34;7.57;;;4.17;;
41275;SDS011;27010;47.718;12.912;2023-02-12T06:20:39;5.60;;;4.00;;
41275;SDS011;27010;47.718;12.912;2023-02-12T06:23:41;8.60;;;3.87;;
41275;SDS011;27010;47.718;12.912;2023-02-12T06:26:43;7.40;;;4.30;;
41275;SDS011;27010;47.718;12.912;2023-02-12T06:29:47;5.77;;;3.90;;
41275;SDS011;27010;47.718;12.912;2023-02-12T06:32:49;6.20;;;4.20;;
41275;SDS011;27010;47.718;12.912;2023-02-12T06:35:51;8.97;;;4.50;;
41275;SDS011;27010;47.718;12.912;2023-02-12T06:38:54;7.80;;;4.30;;
41275;SDS011;27010;47.718;12.912;2023-02-12T06:41:56;8.77;;;4.70;;
41275;SDS011;27010;47.718;12.912;2023-02-12T06:44:58;8.37;;;4.40;;
41275;SDS011;27010;47.718;12.912;2023-02-12T06:48:00;8.07;;;4.53;;
41275;SDS011;27010;47.718;12.912;2023-02-12T06:51:13;8.60;;;5.20;;
41275;SDS011;27010;47.718;12.912;2023-02-12T06:54:16;8.23;;;4.50;;
41275;SDS011;27010;47.718;12.912;2023-02-12T06:57:18;6.67;;;4.37;;
41275;SDS011;27010;47.718;12.912;2023-02-12T07:00:21;11.57;;;4.77;;
41275;SDS011;27010;47.718;12.912;2023-02-12T07:03:23;6.63;;;4.87;;
41275;SDS011;27010;47.718;12.912;2023-02-12T07:06:25;11.87;;;6.03;;
41275;SDS011;27010;47.718;12.912;2023-02-12T07:09:28;7.40;;;4.70;;
41275;SDS011;27010;47.718;12.912;2023-02-12T07:12:32;8.00;;;4.90;;
41275;SDS011;27010;47.718;12.912;2023-02-12T07:15:37;8.50;;;4.93;;
41275;SDS011;27010;47.718;12.912;2023-02-12T07:18:40;10.10;;;5.00;;
41275;SDS011;27010;47.718;12.912;2023-02-12T07:21:42;14.03;;;5.33;;
41275;SDS011;27010;47.718;12.912;2023-02-12T07:24:45;9.30;;;4.63;;
41275;SDS011;27010;47.718;12.912;2023-02-12T07:27:47;11.00;;;4.97;;
41275;SDS011;27010;47.718;12.912;2023-02-12T07:30:49;9.63;;;5.60;;
41275;SDS011;27010;47.718;12.912;2023-02-12T07:33:55;8.00;;;5.33;;
41275;SDS011;27010;47.718;12.912;2023-02-12T07:36:58;9.67;;;5.67;;
41275;SDS011;27010;47.718;12.912;2023-02-12T07:40:01;8.03;;;5.23;;
41275;SDS011;27010;47.718;12.912;2023-02-12T07:43:04;7.00;;;4.77;;
41275;SDS011;27010;47.718;12.912;2023-02-12T07:46:09;7.67;;;5.13;;
41275;SDS011;27010;47.718;12.912;2023-02-12T07:49:20;8.80;;;5.27;;
41275;SDS011;27010;47.718;12.912;2023-02-12T07:52:23;10.47;;;5.97;;
41275;SDS011;27010;47.718;12.912;2023-02-12T07:55:25;9.07;;;5.57;;
41275;SDS011;27010;47.718;12.912;2023-02-12T07:58:27;10.43;;;5.70;;
41275;SDS011;27010;47.718;12.912;2023-02-12T08:01:30;11.13;;;6.60;;
41275;SDS011;27010;47.718;12.912;2023-02-12T08:04:33;11.17;;;6.30;;
41275;SDS011;27010;47.718;12.912;2023-02-12T08:07:35;10.87;;;6.80;;
41275;SDS011;27010;47.718;12.912;2023-02-12T08:10:38;10.53;;;6.70;;
41275;SDS011;27010;47.718;12.912;2023-02-12T08:13:40;8.17;;;4.97;;
41275;SDS011;27010;47.718;12.912;2023-02-12T08:16:45;9.73;;;5.57;;
41275;SDS011;27010;47.718;12.912;2023-02-12T08:19:47;13.57;;;6.00;;
41275;SDS011;27010;47.718;12.912;2023-02-12T08:22:49;10.50;;;6.27;;
41275;SDS011;27010;47.718;12.912;2023-02-12T08:25:52;9.83;;;6.37;;
41275;SDS011;27010;47.718;12.912;2023-02-12T08:29:01;9.57;;;6.47;;
41275;SDS011;27010;47.718;12.912;2023-02-12T08:32:04;14.07;;;7.17;;
41275;SDS011;27010;47.718;12.912;2023-02-12T08:35:07;13.77;;;7.33;;
41275;SDS011;27010;47.718;12.912;2023-02-12T08:38:09;12.17;;;7.27;;
41275;SDS011;27010;47.718;12.912;2023-02-12T08:41:12;12.70;;;7.73;;
41275;SDS011;27010;47.718;12.912;2023-02-12T08:44:16;13.47;;;7.97;;
41275;SDS011;27010;47.718;12.912;2023-02-12T08:47:18;12.53;;;7.43;;
41275;SDS011;27010;47.718;12.912;2023-02-12T08:50:20;10.70;;;6.93;;
41275;SDS011;27010;47.718;12.912;2023-02-12T08:53:24;13.63;;;7.40;;
41275;SDS011;27010;47.718;12.912;2023-02-12T08:56:27;11.37;;;7.20;;
41275;SDS011;27010;47.718;12.912;2023-02-12T08:59:33;12.60;;;7.17;;
41275;SDS011;27010;47.718;12.912;2023-02-12T09:02:35;13.77;;;7.83;;
41275;SDS011;27010;47.718;12.912;2023-02-12T09:05:38;11.40;;;7.90;;
41275;SDS011;27010;47.718;12.912;2023-02-12T09:08:42;14.20;;;9.30;;
41275;SDS011;27010;47.718;12.912;2023-02-12T09:11:46;14.20;;;8.43;;
41275;SDS011;27010;47.718;12.912;2023-02-12T09:14:51;13.53;;;8.37;;
41275;SDS011;27010;47.718;12.912;2023-02-12T09:17:53;15.17;;;8.50;;
41275;SDS011;27010;47.718;12.912;2023-02-12T09:20:59;15.03;;;8.47;;
41275;SDS011;27010;47.718;12.912;2023-02-12T09:24:06;15.10;;;9.37;;
41275;SDS011;27010;47.718;12.912;2023-02-12T09:27:08;13.63;;;9.13;;
41275;SDS011;27010;47.718;12.912;2023-02-12T09:30:11;15.77;;;9.20;;
41275;SDS011;27010;47.718;12.912;2023-02-12T09:33:14;14.87;;;9.00;;
41275;SDS011;27010;47.718;12.912;2023-02-12T09:36:16;19.33;;;10.00;;
41275;SDS011;27010;47.718;12.912;2023-02-12T09:39:18;19.60;;;9.60;;
41275;SDS011;27010;47.718;12.912;2023-02-12T09:42:23;14.83;;;9.77;;
41275;SDS011;27010;47.718;12.912;2023-02-12T09:45:29;15.73;;;10.00;;
41275;SDS011;27010;47.718;12.912;2023-02-12T09:52:12;12.97;;;9.10;;
41275;SDS011;27010;47.718;12.912;2023-02-12T09:55:17;16.87;;;10.03;;
41275;SDS011;27010;47.718;12.912;2023-02-12T09:58:30;15.43;;;9.30;;
41275;SDS011;27010;47.718;12.912;2023-02-12T10:01:33;13.10;;;8.87;;
41275;SDS011;27010;47.718;12.912;2023-02-12T10:04:36;11.47;;;7.83;;
41275;SDS011;27010;47.718;12.912;2023-02-12T10:08:09;13.20;;;8.27;;
41275;SDS011;27010;47.718;12.912;2023-02-12T10:22:03;15.07;;;8.87;;
41275;SDS011;27010;47.718;12.912;2023-02-12T10:25:49;15.30;;;9.20;;
41275;SDS011;27010;47.718;12.912;2023-02-12T10:28:56;15.50;;;9.43;;
41275;SDS011;27010;47.718;12.912;2023-02-12T10:32:02;16.87;;;10.40;;
41275;SDS011;27010;47.718;12.912;2023-02-12T10:35:26;16.57;;;10.90;;
41275;SDS011;27010;47.718;12.912;2023-02-12T10:38:30;20.33;;;11.03;;
41275;SDS011;27010;47.718;12.912;2023-02-12T10:41:36;16.37;;;10.70;;
41275;SDS011;27010;47.718;12.912;2023-02-12T10:44:42;19.10;;;10.83;;
41275;SDS011;27010;47.718;12.912;2023-02-12T10:47:45;17.17;;;11.30;;
41275;SDS011;27010;47.718;12.912;2023-02-12T10:53:53;16.70;;;11.83;;
41275;SDS011;27010;47.718;12.912;2023-02-12T10:56:55;17.50;;;11.17;;
41275;SDS011;27010;47.718;12.912;2023-02-12T11:03:38;20.53;;;11.60;;
41275;SDS011;27010;47.718;12.912;2023-02-12T11:06:40;18.93;;;12.07;;
41275;SDS011;27010;47.718;12.912;2023-02-12T11:09:58;15.97;;;11.37;;
41275;SDS011;27010;47.718;12.912;2023-02-12T11:13:00;17.47;;;11.30;;
41275;SDS011;27010;47.718;12.912;2023-02-12T11:16:03;22.40;;;13.47;;
41275;SDS011;27010;47.718;12.912;2023-02-12T11:19:07;21.20;;;12.30;;
41275;SDS011;27010;47.718;12.912;2023-02-12T11:22:12;19.33;;;12.33;;
41275;SDS011;27010;47.718;12.912;2023-02-12T11:25:20;16.57;;;11.00;;
41275;SDS011;27010;47.718;12.912;2023-02-12T11:28:23;17.30;;;12.10;;
41275;SDS011;27010;47.718;12.912;2023-02-12T11:34:34;22.67;;;13.23;;
41275;SDS011;27010;47.718;12.912;2023-02-12T11:37:41;18.03;;;11.80;;
41275;SDS011;27010;47.718;12.912;2023-02-12T11:40:44;19.33;;;11.83;;
41275;SDS011;27010;47.718;12.912;2023-02-12T11:43:48;20.53;;;13.40;;
41275;SDS011;27010;47.718;12.912;2023-02-12T11:46:56;19.43;;;11.87;;
41275;SDS011;27010;47.718;12.912;2023-02-12T11:50:05;18.37;;;12.10;;
41275;SDS011;27010;47.718;12.912;2023-02-12T11:53:17;20.30;;;13.20;;
41275;SDS011;27010;47.718;12.912;2023-02-12T11:56:21;20.03;;;12.50;;
41275;SDS011;27010;47.718;12.912;2023-02-12T12:02:32;17.27;;;11.17;;
41275;SDS011;27010;47.718;12.912;2023-02-12T12:05:48;18.57;;;11.43;;
41275;SDS011;27010;47.718;12.912;2023-02-12T12:08:55;18.83;;;11.50;;
41275;SDS011;27010;47.718;12.912;2023-02-12T12:12:12;19.30;;;11.53;;
41275;SDS011;27010;47.718;12.912;2023-02-12T12:15:25;17.90;;;11.13;;
41275;SDS011;27010;47.718;12.912;2023-02-12T12:18:50;14.10;;;9.93;;
41275;SDS011;27010;47.718;12.912;2023-02-12T12:25:30;15.70;;;10.40;;
41275;SDS011;27010;47.718;12.912;2023-02-12T12:28:44;17.77;;;11.27;;
41275;SDS011;27010;47.718;12.912;2023-02-12T12:31:58;21.47;;;12.60;;
41275;SDS011;27010;47.718;12.912;2023-02-12T12:35:02;18.93;;;11.40;;
41275;SDS011;27010;47.718;12.912;2023-02-12T12:38:13;17.67;;;9.43;;
41275;SDS011;27010;47.718;12.912;2023-02-12T12:45:15;15.43;;;9.37;;
41275;SDS011;27010;47.718;12.912;2023-02-12T12:48:48;14.77;;;8.03;;
41275;SDS011;27010;47.718;12.912;2023-02-12T12:52:02;13.13;;;8.03;;
41275;SDS011;27010;47.718;12.912;2023-02-12T13:11:43;13.03;;;7.93;;
41275;SDS011;27010;47.718;12.912;2023-02-12T13:15:16;11.50;;;7.83;;
41275;SDS011;27010;47.718;12.912;2023-02-12T13:19:04;11.47;;;7.23;;
41275;SDS011;27010;47.718;12.912;2023-02-12T13:21:49;10.13;;;6.77;;
41275;SDS011;27010;47.718;12.912;2023-02-12T13:28:26;10.43;;;6.63;;
41275;SDS011;27010;47.718;12.912;2023-02-12T13:31:44;9.83;;;6.83;;
41275;SDS011;27010;47.718;12.912;2023-02-12T13:34:52;10.97;;;7.03;;
41275;SDS011;27010;47.718;12.912;2023-02-12T13:37:54;13.37;;;6.73;;
41275;SDS011;27010;47.718;12.912;2023-02-12T13:41:00;10.73;;;6.50;;
41275;SDS011;27010;47.718;12.912;2023-02-12T13:44:19;10.63;;;6.77;;
41275;SDS011;27010;47.718;12.912;2023-02-12T13:47:41;11.50;;;7.00;;
41275;SDS011;27010;47.718;12.912;2023-02-12T13:51:09;10.33;;;6.60;;
41275;SDS011;27010;47.718;12.912;2023-02-12T13:57:41;11.77;;;6.83;;
41275;SDS011;27010;47.718;12.912;2023-02-12T14:03:47;11.43;;;6.60;;
41275;SDS011;27010;47.718;12.912;2023-02-12T14:06:56;11.33;;;7.03;;
41275;SDS011;27010;47.718;12.912;2023-02-12T14:10:02;10.03;;;6.17;;
41275;SDS011;27010;47.718;12.912;2023-02-12T14:16:38;10.03;;;7.10;;
41275;SDS011;27010;47.718;12.912;2023-02-12T14:26:05;11.87;;;7.33;;
41275;SDS011;27010;47.718;12.912;2023-02-12T14:29:17;18.43;;;11.60;;
41275;SDS011;27010;47.718;12.912;2023-02-12T14:33:08;16.00;;;9.07;;
41275;SDS011;27010;47.718;12.912;2023-02-12T14:36:42;14.77;;;9.00;;
41275;SDS011;27010;47.718;12.912;2023-02-12T14:39:36;37.47;;;19.90;;
41275;SDS011;27010;47.718;12.912;2023-02-12T14:45:40;16.43;;;9.70;;
41275;SDS011;27010;47.718;12.912;2023-02-12T14:51:56;10.37;;;7.33;;
41275;SDS011;27010;47.718;12.912;2023-02-12T14:55:00;10.63;;;7.40;;
41275;SDS011;27010;47.718;12.912;2023-02-12T14:58:05;12.37;;;6.90;;
41275;SDS011;27010;47.718;12.912;2023-02-12T15:01:17;14.30;;;7.57;;
41275;SDS011;27010;47.718;12.912;2023-02-12T15:04:31;9.37;;;6.03;;
41275;SDS011;27010;47.718;12.912;2023-02-12T15:07:42;11.63;;;7.00;;
41275;SDS011;27010;47.718;12.912;2023-02-12T15:11:08;9.93;;;6.23;;
41275;SDS011;27010;47.718;12.912;2023-02-12T15:14:19;8.60;;;5.87;;
41275;SDS011;27010;47.718;12.912;2023-02-12T15:17:24;9.73;;;5.67;;
41275;SDS011;27010;47.718;12.912;2023-02-12T15:20:29;13.93;;;7.50;;
41275;SDS011;27010;47.718;12.912;2023-02-12T15:23:37;11.10;;;7.10;;
41275;SDS011;27010;47.718;12.912;2023-02-12T15:26:48;12.30;;;7.43;;
41275;SDS011;27010;47.718;12.912;2023-02-12T15:29:55;10.77;;;7.30;;
41275;SDS011;27010;47.718;12.912;2023-02-12T15:32:58;8.97;;;6.30;;
41275;SDS011;27010;47.718;12.912;2023-02-12T15:36:03;12.57;;;6.30;;
41275;SDS011;27010;47.718;12.912;2023-02-12T15:39:07;10.20;;;6.03;;
41275;SDS011;27010;47.718;12.912;2023-02-12T15:46:14;14.03;;;5.80;;
41275;SDS011;27010;47.718;12.912;2023-02-12T15:49:19;9.07;;;6.17;;
41275;SDS011;27010;47.718;12.912;2023-02-12T15:52:29;11.47;;;6.40;;
41275;SDS011;27010;47.718;12.912;2023-02-12T15:55:38;11.47;;;6.20;;
41275;SDS011;27010;47.718;12.912;2023-02-12T15:58:47;10.33;;;5.80;;
41275;SDS011;27010;47.718;12.912;2023-02-12T16:01:52;7.83;;;5.30;;
41275;SDS011;27010;47.718;12.912;2023-02-12T16:05:03;9.17;;;5.53;;
41275;SDS011;27010;47.718;12.912;2023-02-12T16:08:08;7.20;;;5.50;;
41275;SDS011;27010;47.718;12.912;2023-02-12T16:11:16;8.33;;;5.57;;
41275;SDS011;27010;47.718;12.912;2023-02-12T16:17:46;7.97;;;5.07;;
41275;SDS011;27010;47.718;12.912;2023-02-12T16:20:48;8.70;;;5.17;;
41275;SDS011;27010;47.718;12.912;2023-02-12T16:23:51;9.27;;;5.33;;
41275;SDS011;27010;47.718;12.912;2023-02-12T16:26:55;13.20;;;6.47;;
41275;SDS011;27010;47.718;12.912;2023-02-12T16:30:04;12.97;;;7.87;;
41275;SDS011;27010;47.718;12.912;2023-02-12T16:33:34;12.90;;;7.23;;
41275;SDS011;27010;47.718;12.912;2023-02-12T16:36:44;11.40;;;5.90;;
41275;SDS011;27010;47.718;12.912;2023-02-12T16:46:00;8.57;;;5.00;;
41275;SDS011;27010;47.718;12.912;2023-02-12T16:49:04;8.10;;;4.47;;
41275;SDS011;27010;47.718;12.912;2023-02-12T16:55:40;9.30;;;4.83;;
41275;SDS011;27010;47.718;12.912;2023-02-12T16:58:42;6.33;;;4.17;;
41275;SDS011;27010;47.718;12.912;2023-02-12T17:01:56;6.73;;;4.20;;
41275;SDS011;27010;47.718;12.912;2023-02-12T17:04:59;6.67;;;4.27;;
41275;SDS011;27010;47.718;12.912;2023-02-12T17:08:02;7.20;;;3.87;;
41275;SDS011;27010;47.718;12.912;2023-02-12T17:11:04;7.60;;;4.67;;
41275;SDS011;27010;47.718;12.912;2023-02-12T17:14:08;7.53;;;4.20;;
41275;SDS011;27010;47.718;12.912;2023-02-12T17:17:16;7.97;;;4.97;;
41275;SDS011;27010;47.718;12.912;2023-02-12T17:20:18;7.30;;;4.53;;
41275;SDS011;27010;47.718;12.912;2023-02-12T17:23:20;7.17;;;4.43;;
41275;SDS011;27010;47.718;12.912;2023-02-12T17:26:23;6.43;;;4.43;;
41275;SDS011;27010;47.718;12.912;2023-02-12T17:29:25;7.63;;;4.50;;
41275;SDS011;27010;47.718;12.912;2023-02-12T17:32:28;12.33;;;5.30;;
41275;SDS011;27010;47.718;12.912;2023-02-12T17:35:30;8.37;;;5.10;;
41275;SDS011;27010;47.718;12.912;2023-02-12T17:38:32;7.97;;;4.83;;
41275;SDS011;27010;47.718;12.912;2023-02-12T17:41:35;8.67;;;5.07;;
41275;SDS011;27010;47.718;12.912;2023-02-12T17:44:37;7.17;;;4.57;;
41275;SDS011;27010;47.718;12.912;2023-02-12T17:47:41;11.13;;;5.63;;
41275;SDS011;27010;47.718;12.912;2023-02-12T17:50:43;9.20;;;4.90;;
41275;SDS011;27010;47.718;12.912;2023-02-12T17:53:46;11.03;;;5.50;;
41275;SDS011;27010;47.718;12.912;2023-02-12T17:56:48;9.80;;;6.23;;
41275;SDS011;27010;47.718;12.912;2023-02-12T17:59:50;7.57;;;4.97;;
41275;SDS011;27010;47.718;12.912;2023-02-12T18:02:52;7.17;;;5.27;;
41275;SDS011;27010;47.718;12.912;2023-02-12T18:05:55;11.43;;;7.23;;
41275;SDS011;27010;47.718;12.912;2023-02-12T18:08:58;14.27;;;7.43;;
41275;SDS011;27010;47.718;12.912;2023-02-12T18:12:04;9.63;;;6.40;;
41275;SDS011;27010;47.718;12.912;2023-02-12T18:15:08;12.20;;;7.73;;
41275;SDS011;27010;47.718;12.912;2023-02-12T18:18:10;12.13;;;7.23;;
41275;SDS011;27010;47.718;12.912;2023-02-12T18:21:14;11.40;;;7.20;;
41275;SDS011;27010;47.718;12.912;2023-02-12T18:24:19;13.70;;;7.77;;
41275;SDS011;27010;47.718;12.912;2023-02-12T18:27:21;10.70;;;6.50;;
41275;SDS011;27010;47.718;12.912;2023-02-12T18:30:23;14.73;;;7.30;;
41275;SDS011;27010;47.718;12.912;2023-02-12T18:33:25;9.27;;;5.90;;
41275;SDS011;27010;47.718;12.912;2023-02-12T18:36:28;10.27;;;5.87;;
41275;SDS011;27010;47.718;12.912;2023-02-12T18:39:30;9.93;;;6.60;;
41275;SDS011;27010;47.718;12.912;2023-02-12T18:42:33;13.60;;;6.40;;
41275;SDS011;27010;47.718;12.912;2023-02-12T18:45:37;11.70;;;6.90;;
41275;SDS011;27010;47.718;12.912;2023-02-12T18:48:40;11.50;;;6.13;;
41275;SDS011;27010;47.718;12.912;2023-02-12T18:51:43;13.23;;;6.20;;
41275;SDS011;27010;47.718;12.912;2023-02-12T18:54:46;9.60;;;5.97;;
41275;SDS011;27010;47.718;12.912;2023-02-12T18:57:50;13.33;;;7.00;;
41275;SDS011;27010;47.718;12.912;2023-02-12T19:00:53;14.83;;;6.93;;
41275;SDS011;27010;47.718;12.912;2023-02-12T19:03:57;13.83;;;7.40;;
41275;SDS011;27010;47.718;12.912;2023-02-12T19:07:01;10.03;;;5.93;;
41275;SDS011;27010;47.718;12.912;2023-02-12T19:10:04;10.87;;;6.67;;
41275;SDS011;27010;47.718;12.912;2023-02-12T19:13:07;13.73;;;7.27;;
41275;SDS011;27010;47.718;12.912;2023-02-12T19:16:13;12.27;;;6.57;;
41275;SDS011;27010;47.718;12.912;2023-02-12T19:19:17;12.10;;;6.60;;
41275;SDS011;27010;47.718;12.912;2023-02-12T19:22:23;10.67;;;6.57;;
41275;SDS011;27010;47.718;12.912;2023-02-12T19:25:29;12.73;;;6.40;;
41275;SDS011;27010;47.718;12.912;2023-02-12T19:28:33;10.60;;;6.07;;
41275;SDS011;27010;47.718;12.912;2023-02-12T19:31:38;9.37;;;5.67;;
41275;SDS011;27010;47.718;12.912;2023-02-12T19:34:44;10.10;;;6.87;;
41275;SDS011;27010;47.718;12.912;2023-02-12T19:37:50;8.67;;;6.10;;
41275;SDS011;27010;47.718;12.912;2023-02-12T19:41:02;11.27;;;6.53;;
41275;SDS011;27010;47.718;12.912;2023-02-12T19:44:11;13.77;;;7.23;;
41275;SDS011;27010;47.718;12.912;2023-02-12T19:47:19;11.23;;;7.00;;
41275;SDS011;27010;47.718;12.912;2023-02-12T19:50:21;11.60;;;6.93;;
41275;SDS011;27010;47.718;12.912;2023-02-12T19:53:23;10.00;;;6.37;;
41275;SDS011;27010;47.718;12.912;2023-02-12T19:56:26;14.60;;;6.37;;
41275;SDS011;27010;47.718;12.912;2023-02-12T19:59:28;11.57;;;7.27;;
41275;SDS011;27010;47.718;12.912;2023-02-12T20:02:31;10.67;;;6.23;;
41275;SDS011;27010;47.718;12.912;2023-02-12T20:05:33;12.40;;;6.93;;
41275;SDS011;27010;47.718;12.912;2023-02-12T20:08:36;10.63;;;7.07;;
41275;SDS011;27010;47.718;12.912;2023-02-12T20:11:39;13.03;;;7.30;;
41275;SDS011;27010;47.718;12.912;2023-02-12T20:14:41;11.83;;;7.67;;
41275;SDS011;27010;47.718;12.912;2023-02-12T20:17:43;14.33;;;7.67;;
41275;SDS011;27010;47.718;12.912;2023-02-12T20:20:45;13.00;;;7.40;;
41275;SDS011;27010;47.718;12.912;2023-02-12T20:23:47;12.90;;;7.17;;
41275;SDS011;27010;47.718;12.912;2023-02-12T20:26:51;11.80;;;7.10;;
41275;SDS011;27010;47.718;12.912;2023-02-12T20:29:53;12.97;;;7.53;;
41275;SDS011;27010;47.718;12.912;2023-02-12T20:32:56;13.00;;;8.17;;